sensor_id;sensor_type;location;lat;lon;timestamp;pressure;altitude;pressure_sealevel;temperature;humidity
48942;BME280;35340;52.378;4.648;2023-03-05T00:01:18;102347.59;;;16.96;44.60
48942;BME280;35340;52.378;4.648;2023-03-05T00:03:44;102350.22;;;16.96;44.68
48942;BME280;35340;52.378;4.648;2023-03-05T00:06:10;102351.06;;;16.97;44.80
48942;BME280;35340;52.378;4.648;2023-03-05T00:08:36;102343.25;;;16.95;44.52
48942;BME280;35340;52.378;4.648;2023-03-05T00:11:05;102348.44;;;16.95;44.92
48942;BME280;35340;52.378;4.648;2023-03-05T00:13:30;102339.78;;;16.95;44.65
48942;BME280;35340;52.378;4.648;2023-03-05T00:15:56;102338.91;;;16.94;44.58
48942;BME280;35340;52.378;4.648;2023-03-05T00:18:22;102334.53;;;16.93;44.71
48942;BME280;35340;52.378;4.648;2023-03-05T00:20:48;102331.94;;;16.93;44.75
48942;BME280;35340;52.378;4.648;2023-03-05T00:23:14;102333.66;;;16.93;44.70
48942;BME280;35340;52.378;4.648;2023-03-05T00:25:39;102327.59;;;16.92;44.69
48942;BME280;35340;52.378;4.648;2023-03-05T00:28:05;102326.69;;;16.92;44.59
48942;BME280;35340;52.378;4.648;2023-03-05T00:30:31;102324.09;;;16.92;44.70
48942;BME280;35340;52.378;4.648;2023-03-05T00:33:00;102325.78;;;16.90;44.73
48942;BME280;35340;52.378;4.648;2023-03-05T00:35:26;102324.09;;;16.90;44.61
48942;BME280;35340;52.378;4.648;2023-03-05T00:37:51;102326.69;;;16.90;44.75
48942;BME280;35340;52.378;4.648;2023-03-05T00:40:17;102330.16;;;16.91;44.55
48942;BME280;35340;52.378;4.648;2023-03-05T00:42:43;102321.47;;;16.89;44.69
48942;BME280;35340;52.378;4.648;2023-03-05T00:45:09;102324.09;;;16.90;44.64
48942;BME280;35340;52.378;4.648;2023-03-05T00:47:35;102322.31;;;16.89;44.75
48942;BME280;35340;52.378;4.648;2023-03-05T00:50:01;102321.47;;;16.89;44.73
48942;BME280;35340;52.378;4.648;2023-03-05T00:52:26;102321.47;;;16.89;44.70
48942;BME280;35340;52.378;4.648;2023-03-05T00:54:52;102332.72;;;16.89;44.54
48942;BME280;35340;52.378;4.648;2023-03-05T00:57:17;102324.06;;;16.89;44.45
48942;BME280;35340;52.378;4.648;2023-03-05T00:59:42;102315.38;;;16.88;44.55
48942;BME280;35340;52.378;4.648;2023-03-05T01:02:08;102309.31;;;16.88;44.43
48942;BME280;35340;52.378;4.648;2023-03-05T01:04:33;102306.72;;;16.88;44.47
48942;BME280;35340;52.378;4.648;2023-03-05T01:06:59;102308.41;;;16.87;44.73
48942;BME280;35340;52.378;4.648;2023-03-05T01:09:24;102297.16;;;16.86;44.58
48942;BME280;35340;52.378;4.648;2023-03-05T01:11:50;102302.34;;;16.86;44.65
48942;BME280;35340;52.378;4.648;2023-03-05T01:14:16;102292.81;;;16.85;44.62
48942;BME280;35340;52.378;4.648;2023-03-05T01:16:42;102295.41;;;16.85;44.63
48942;BME280;35340;52.378;4.648;2023-03-05T01:19:07;102293.69;;;16.86;44.54
48942;BME280;35340;52.378;4.648;2023-03-05T01:21:34;102293.66;;;16.84;44.67
48942;BME280;35340;52.378;4.648;2023-03-05T01:24:03;102284.13;;;16.85;44.81
48942;BME280;35340;52.378;4.648;2023-03-05T01:26:29;102279.78;;;16.84;44.61
48942;BME280;35340;52.378;4.648;2023-03-05T01:28:54;102277.19;;;16.84;44.49
48942;BME280;35340;52.378;4.648;2023-03-05T01:31:20;102276.31;;;16.83;44.53
48942;BME280;35340;52.378;4.648;2023-03-05T01:33:45;102270.22;;;16.83;44.50
48942;BME280;35340;52.378;4.648;2023-03-05T01:36:12;102261.56;;;16.82;44.76
48942;BME280;35340;52.378;4.648;2023-03-05T01:38:43;102261.56;;;16.82;44.50
48942;BME280;35340;52.378;4.648;2023-03-05T01:41:10;102262.41;;;16.81;44.63
48942;BME280;35340;52.378;4.648;2023-03-05T01:43:36;102258.91;;;16.81;44.68
48942;BME280;35340;52.378;4.648;2023-03-05T01:51:44;102238.13;;;16.81;44.51
48942;BME280;35340;52.378;4.648;2023-03-05T01:54:14;102233.78;;;16.80;44.59
48942;BME280;35340;52.378;4.648;2023-03-05T01:56:42;102234.66;;;16.80;44.74
48942;BME280;35340;52.378;4.648;2023-03-05T01:59:09;102227.69;;;16.79;44.79
48942;BME280;35340;52.378;4.648;2023-03-05T02:01:45;102224.22;;;16.79;44.59
48942;BME280;35340;52.378;4.648;2023-03-05T02:04:15;102210.31;;;16.78;44.64
48942;BME280;35340;52.378;4.648;2023-03-05T02:06:42;102211.19;;;16.77;44.70
48942;BME280;35340;52.378;4.648;2023-03-05T02:09:08;102206.84;;;16.78;44.68
48942;BME280;35340;52.378;4.648;2023-03-05T02:11:34;102205.97;;;16.77;44.65
48942;BME280;35340;52.378;4.648;2023-03-05T02:14:01;102205.97;;;16.77;44.81
48942;BME280;35340;52.378;4.648;2023-03-05T02:16:27;102199.03;;;16.76;44.74
48942;BME280;35340;52.378;4.648;2023-03-05T02:19:01;102196.41;;;16.76;44.45
48942;BME280;35340;52.378;4.648;2023-03-05T02:21:30;102190.34;;;16.76;44.40
48942;BME280;35340;52.378;4.648;2023-03-05T02:24:00;102182.56;;;16.76;44.72
48942;BME280;35340;52.378;4.648;2023-03-05T02:26:25;102179.09;;;16.75;44.71
48942;BME280;35340;52.378;4.648;2023-03-05T02:28:56;102180.81;;;16.75;44.78
48942;BME280;35340;52.378;4.648;2023-03-05T02:31:24;102177.34;;;16.76;44.67
48942;BME280;35340;52.378;4.648;2023-03-05T02:33:50;102173.03;;;16.75;44.74
48942;BME280;35340;52.378;4.648;2023-03-05T02:36:17;102174.72;;;16.74;44.65
48942;BME280;35340;52.378;4.648;2023-03-05T02:38:43;102169.56;;;16.76;44.89
48942;BME280;35340;52.378;4.648;2023-03-05T02:41:09;102183.41;;;16.76;44.87
48942;BME280;35340;52.378;4.648;2023-03-05T02:43:34;102176.53;;;16.77;44.66
48942;BME280;35340;52.378;4.648;2023-03-05T02:46:03;102183.41;;;16.76;44.81
48942;BME280;35340;52.378;4.648;2023-03-05T02:48:29;102174.78;;;16.77;44.51
48942;BME280;35340;52.378;4.648;2023-03-05T02:50:55;102169.59;;;16.77;44.59
48942;BME280;35340;52.378;4.648;2023-03-05T02:53:21;102165.25;;;16.78;44.83
48942;BME280;35340;52.378;4.648;2023-03-05T02:55:48;102151.41;;;16.77;44.78
48942;BME280;35340;52.378;4.648;2023-03-05T02:58:14;102152.25;;;16.78;44.70
48942;BME280;35340;52.378;4.648;2023-03-05T03:00:40;102149.66;;;16.78;44.89
48942;BME280;35340;52.378;4.648;2023-03-05T03:03:05;102134.06;;;16.78;44.79
48942;BME280;35340;52.378;4.648;2023-03-05T03:05:31;102130.63;;;16.79;44.76
48942;BME280;35340;52.378;4.648;2023-03-05T03:07:57;102128.03;;;16.79;44.63
48942;BME280;35340;52.378;4.648;2023-03-05T03:10:23;102127.13;;;16.78;44.85
48942;BME280;35340;52.378;4.648;2023-03-05T03:12:48;102121.94;;;16.78;44.93
48942;BME280;35340;52.378;4.648;2023-03-05T03:15:15;102120.22;;;16.79;45.12
48942;BME280;35340;52.378;4.648;2023-03-05T03:17:40;102116.72;;;16.78;44.84
48942;BME280;35340;52.378;4.648;2023-03-05T03:20:10;102115.03;;;16.79;44.77
48942;BME280;35340;52.378;4.648;2023-03-05T03:22:36;102117.63;;;16.79;44.98
48942;BME280;35340;52.378;4.648;2023-03-05T03:25:03;102116.72;;;16.78;44.90
48942;BME280;35340;52.378;4.648;2023-03-05T03:27:28;102112.41;;;16.77;44.93
48942;BME280;35340;52.378;4.648;2023-03-05T03:29:54;102106.34;;;16.77;45.03
48942;BME280;35340;52.378;4.648;2023-03-05T03:32:19;102113.25;;;16.78;44.93
48942;BME280;35340;52.378;4.648;2023-03-05T03:34:45;102109.78;;;16.76;44.97
48942;BME280;35340;52.378;4.648;2023-03-05T03:37:13;102101.97;;;16.76;45.10
48942;BME280;35340;52.378;4.648;2023-03-05T03:39:39;102098.50;;;16.75;45.01
48942;BME280;35340;52.378;4.648;2023-03-05T03:42:04;102095.00;;;16.73;44.97
48942;BME280;35340;52.378;4.648;2023-03-05T03:44:30;102093.28;;;16.74;44.82
48942;BME280;35340;52.378;4.648;2023-03-05T03:46:56;102088.94;;;16.73;45.08
48942;BME280;35340;52.378;4.648;2023-03-05T03:49:23;102088.03;;;16.72;44.96
48942;BME280;35340;52.378;4.648;2023-03-05T03:51:50;102084.59;;;16.72;45.00
48942;BME280;35340;52.378;4.648;2023-03-05T03:54:17;102089.78;;;16.72;44.98
48942;BME280;35340;52.378;4.648;2023-03-05T03:56:43;102084.59;;;16.72;44.93
48942;BME280;35340;52.378;4.648;2023-03-05T03:59:09;102081.13;;;16.71;45.25
48942;BME280;35340;52.378;4.648;2023-03-05T04:01:35;102080.25;;;16.71;45.01
48942;BME280;35340;52.378;4.648;2023-03-05T04:04:01;102079.38;;;16.72;45.09
48942;BME280;35340;52.378;4.648;2023-03-05T04:06:26;102076.78;;;16.72;44.85
48942;BME280;35340;52.378;4.648;2023-03-05T04:08:52;102073.34;;;16.73;45.16
48942;BME280;35340;52.378;4.648;2023-03-05T04:11:18;102072.44;;;16.72;45.07
48942;BME280;35340;52.378;4.648;2023-03-05T04:13:47;102068.97;;;16.72;45.07
48942;BME280;35340;52.378;4.648;2023-03-05T04:16:13;102068.16;;;16.73;45.17
48942;BME280;35340;52.378;4.648;2023-03-05T04:18:38;102069.00;;;16.73;45.03
48942;BME280;35340;52.378;4.648;2023-03-05T04:21:04;102070.75;;;16.73;44.99
48942;BME280;35340;52.378;4.648;2023-03-05T04:23:29;102063.81;;;16.73;45.12
48942;BME280;35340;52.378;4.648;2023-03-05T04:25:55;102057.75;;;16.73;45.11
48942;BME280;35340;52.378;4.648;2023-03-05T04:28:20;102055.16;;;16.74;45.14
48942;BME280;35340;52.378;4.648;2023-03-05T04:30:46;102049.94;;;16.74;45.22
48942;BME280;35340;52.378;4.648;2023-03-05T04:33:14;102045.59;;;16.72;45.14
48942;BME280;35340;52.378;4.648;2023-03-05T04:35:39;102049.94;;;16.73;45.24
48942;BME280;35340;52.378;4.648;2023-03-05T04:38:05;102047.34;;;16.73;45.26
48942;BME280;35340;52.378;4.648;2023-03-05T04:40:30;102043.84;;;16.72;45.12
48942;BME280;35340;52.378;4.648;2023-03-05T04:42:56;102040.38;;;16.72;45.15
48942;BME280;35340;52.378;4.648;2023-03-05T04:45:21;102037.78;;;16.72;45.06
48942;BME280;35340;52.378;4.648;2023-03-05T04:47:46;102037.78;;;16.70;45.13
48942;BME280;35340;52.378;4.648;2023-03-05T04:50:12;102036.91;;;16.70;45.14
48942;BME280;35340;52.378;4.648;2023-03-05T04:52:42;102037.78;;;16.70;45.08
48942;BME280;35340;52.378;4.648;2023-03-05T04:55:09;102031.69;;;16.70;45.08
48942;BME280;35340;52.378;4.648;2023-03-05T04:57:35;102027.41;;;16.70;45.15
48942;BME280;35340;52.378;4.648;2023-03-05T05:00:00;102025.66;;;16.71;45.21
48942;BME280;35340;52.378;4.648;2023-03-05T05:02:26;102016.13;;;16.71;45.14
48942;BME280;35340;52.378;4.648;2023-03-05T05:04:52;102018.72;;;16.71;45.22
48942;BME280;35340;52.378;4.648;2023-03-05T05:07:18;102014.41;;;16.72;45.35
48942;BME280;35340;52.378;4.648;2023-03-05T05:09:43;102020.47;;;16.72;45.46
48942;BME280;35340;52.378;4.648;2023-03-05T05:12:08;102017.00;;;16.72;45.15
48942;BME280;35340;52.378;4.648;2023-03-05T05:14:35;102010.94;;;16.71;45.36
48942;BME280;35340;52.378;4.648;2023-03-05T05:17:01;102010.06;;;16.72;45.31
48942;BME280;35340;52.378;4.648;2023-03-05T05:19:38;102013.53;;;16.71;45.33
48942;BME280;35340;52.378;4.648;2023-03-05T05:22:03;102008.38;;;16.73;45.17
48942;BME280;35340;52.378;4.648;2023-03-05T05:24:28;102008.34;;;16.71;45.38
48942;BME280;35340;52.378;4.648;2023-03-05T05:26:54;102003.13;;;16.71;45.33
48942;BME280;35340;52.378;4.648;2023-03-05T05:29:20;101997.06;;;16.72;45.31
48942;BME280;35340;52.378;4.648;2023-03-05T05:31:46;101991.00;;;16.72;45.20
48942;BME280;35340;52.378;4.648;2023-03-05T05:34:11;101994.47;;;16.72;45.32
48942;BME280;35340;52.378;4.648;2023-03-05T05:36:37;101991.03;;;16.73;45.21
48942;BME280;35340;52.378;4.648;2023-03-05T05:39:03;101985.81;;;16.72;45.20
48942;BME280;35340;52.378;4.648;2023-03-05T05:41:28;101984.06;;;16.72;45.29
48942;BME280;35340;52.378;4.648;2023-03-05T05:43:54;101987.56;;;16.73;45.26
48942;BME280;35340;52.378;4.648;2023-03-05T05:46:20;101978.88;;;16.72;45.16
48942;BME280;35340;52.378;4.648;2023-03-05T05:48:46;101983.25;;;16.73;45.27
48942;BME280;35340;52.378;4.648;2023-03-05T05:51:17;101975.41;;;16.72;45.64
48942;BME280;35340;52.378;4.648;2023-03-05T05:53:43;101977.19;;;16.73;45.45
48942;BME280;35340;52.378;4.648;2023-03-05T05:56:10;101984.06;;;16.72;45.47
48942;BME280;35340;52.378;4.648;2023-03-05T05:58:37;101991.03;;;16.73;45.54
48942;BME280;35340;52.378;4.648;2023-03-05T06:01:21;101985.81;;;16.72;45.40
48942;BME280;35340;52.378;4.648;2023-03-05T06:03:47;101984.97;;;16.73;45.42
48942;BME280;35340;52.378;4.648;2023-03-05T06:06:15;101978.03;;;16.73;45.53
48942;BME280;35340;52.378;4.648;2023-03-05T06:08:42;101984.06;;;16.72;45.54
48942;BME280;35340;52.378;4.648;2023-03-05T06:11:07;101980.63;;;16.73;45.37
48942;BME280;35340;52.378;4.648;2023-03-05T06:13:33;101989.31;;;16.74;45.54
48942;BME280;35340;52.378;4.648;2023-03-05T06:16:00;101984.97;;;16.73;45.29
48942;BME280;35340;52.378;4.648;2023-03-05T06:18:26;101982.38;;;16.73;45.45
48942;BME280;35340;52.378;4.648;2023-03-05T06:20:56;101984.09;;;16.74;45.45
48942;BME280;35340;52.378;4.648;2023-03-05T06:23:23;101984.97;;;16.73;45.60
48942;BME280;35340;52.378;4.648;2023-03-05T06:25:48;101977.16;;;16.74;45.65
48942;BME280;35340;52.378;4.648;2023-03-05T06:28:15;101974.56;;;16.74;45.56
48942;BME280;35340;52.378;4.648;2023-03-05T06:30:40;101980.66;;;16.75;45.40
48942;BME280;35340;52.378;4.648;2023-03-05T06:33:06;101981.53;;;16.75;45.61
48942;BME280;35340;52.378;4.648;2023-03-05T06:35:31;101971.13;;;16.75;45.57
48942;BME280;35340;52.378;4.648;2023-03-05T06:38:00;101973.72;;;16.75;45.38
48942;BME280;35340;52.378;4.648;2023-03-05T06:40:25;101975.47;;;16.76;45.28
48942;BME280;35340;52.378;4.648;2023-03-05T06:42:51;101965.06;;;16.76;45.58
48942;BME280;35340;52.378;4.648;2023-03-05T06:45:16;101973.75;;;16.77;45.40
48942;BME280;35340;52.378;4.648;2023-03-05T06:47:42;101965.09;;;16.78;45.38
48942;BME280;35340;52.378;4.648;2023-03-05T06:50:07;101972.06;;;16.79;45.64
48942;BME280;35340;52.378;4.648;2023-03-05T06:52:33;101972.09;;;16.80;45.31
48942;BME280;35340;52.378;4.648;2023-03-05T06:55:05;101972.94;;;16.81;45.26
48942;BME280;35340;52.378;4.648;2023-03-05T06:57:31;101972.09;;;16.82;45.52
48942;BME280;35340;52.378;4.648;2023-03-05T06:59:56;101963.44;;;16.83;45.43
48942;BME280;35340;52.378;4.648;2023-03-05T07:02:22;101958.25;;;16.84;45.29
48942;BME280;35340;52.378;4.648;2023-03-05T07:04:47;101960.91;;;16.86;45.54
48942;BME280;35340;52.378;4.648;2023-03-05T07:07:12;101962.63;;;16.85;45.43
48942;BME280;35340;52.378;4.648;2023-03-05T07:09:38;101960.91;;;16.86;45.32
48942;BME280;35340;52.378;4.648;2023-03-05T07:12:10;101951.34;;;16.86;45.50
48942;BME280;35340;52.378;4.648;2023-03-05T07:14:38;101953.06;;;16.84;45.55
48942;BME280;35340;52.378;4.648;2023-03-05T07:17:05;101955.66;;;16.84;45.44
48942;BME280;35340;52.378;4.648;2023-03-05T07:19:31;101963.44;;;16.83;45.55
48942;BME280;35340;52.378;4.648;2023-03-05T07:21:56;101969.50;;;16.82;45.54
48942;BME280;35340;52.378;4.648;2023-03-05T07:24:22;101976.44;;;16.83;45.47
48942;BME280;35340;52.378;4.648;2023-03-05T07:26:51;101976.44;;;16.81;45.48
48942;BME280;35340;52.378;4.648;2023-03-05T07:29:16;101972.09;;;16.82;45.61
48942;BME280;35340;52.378;4.648;2023-03-05T07:31:42;101963.44;;;16.83;45.61
48942;BME280;35340;52.378;4.648;2023-03-05T07:34:09;101972.16;;;16.86;45.38
48942;BME280;35340;52.378;4.648;2023-03-05T07:36:38;101967.00;;;16.91;45.47
48942;BME280;35340;52.378;4.648;2023-03-05T07:39:05;101967.06;;;16.96;45.38
48942;BME280;35340;52.378;4.648;2023-03-05T07:41:31;101970.59;;;17.01;45.31
48942;BME280;35340;52.378;4.648;2023-03-05T07:43:59;101965.44;;;17.05;45.37
48942;BME280;35340;52.378;4.648;2023-03-05T07:46:28;101962.00;;;17.11;45.17
48942;BME280;35340;52.378;4.648;2023-03-05T07:48:55;101956.03;;;17.20;45.14
48942;BME280;35340;52.378;4.648;2023-03-05T07:51:22;101955.25;;;17.27;44.88
48942;BME280;35340;52.378;4.648;2023-03-05T07:53:52;101953.53;;;17.31;44.91
48942;BME280;35340;52.378;4.648;2023-03-05T07:56:31;101955.28;;;17.33;44.72
48942;BME280;35340;52.378;4.648;2023-03-05T07:59:02;101950.97;;;17.35;44.83
48942;BME280;35340;52.378;4.648;2023-03-05T08:01:29;101944.94;;;17.38;44.63
48942;BME280;35340;52.378;4.648;2023-03-05T08:03:54;101943.25;;;17.43;44.57
48942;BME280;35340;52.378;4.648;2023-03-05T08:06:20;101948.53;;;17.52;44.28
48942;BME280;35340;52.378;4.648;2023-03-05T08:08:46;101938.25;;;17.69;44.01
48942;BME280;35340;52.378;4.648;2023-03-05T08:11:13;101940.84;;;17.66;44.10
48942;BME280;35340;52.378;4.648;2023-03-05T08:13:39;101933.81;;;17.54;44.29
48942;BME280;35340;52.378;4.648;2023-03-05T08:16:10;101934.63;;;17.50;44.28
48942;BME280;35340;52.378;4.648;2023-03-05T08:18:36;101943.25;;;17.43;44.71
48942;BME280;35340;52.378;4.648;2023-03-05T08:21:02;101930.22;;;17.41;44.92
48942;BME280;35340;52.378;4.648;2023-03-05T08:23:28;101934.53;;;17.39;44.67
48942;BME280;35340;52.378;4.648;2023-03-05T08:25:54;101931.03;;;17.37;44.83
48942;BME280;35340;52.378;4.648;2023-03-05T08:28:20;101929.31;;;17.36;45.05
48942;BME280;35340;52.378;4.648;2023-03-05T08:30:46;101928.44;;;17.37;44.87
48942;BME280;35340;52.378;4.648;2023-03-05T08:33:13;101925.88;;;17.39;44.73
48942;BME280;35340;52.378;4.648;2023-03-05T08:35:39;101925.84;;;17.36;44.84
48942;BME280;35340;52.378;4.648;2023-03-05T08:38:05;101921.47;;;17.33;44.94
48942;BME280;35340;52.378;4.648;2023-03-05T08:40:30;101921.47;;;17.32;45.01
48942;BME280;35340;52.378;4.648;2023-03-05T08:42:57;101910.19;;;17.30;45.27
48942;BME280;35340;52.378;4.648;2023-03-05T08:45:24;101918.00;;;17.31;45.11
48942;BME280;35340;52.378;4.648;2023-03-05T08:47:50;101916.22;;;17.28;45.06
48942;BME280;35340;52.378;4.648;2023-03-05T08:50:15;101914.44;;;17.24;45.37
48942;BME280;35340;52.378;4.648;2023-03-05T08:52:42;101908.38;;;17.21;45.29
48942;BME280;35340;52.378;4.648;2023-03-05T08:55:07;101911.81;;;17.18;45.53
48942;BME280;35340;52.378;4.648;2023-03-05T08:57:33;101912.69;;;17.19;45.38
48942;BME280;35340;52.378;4.648;2023-03-05T08:59:58;101910.94;;;17.19;45.19
48942;BME280;35340;52.378;4.648;2023-03-05T09:02:24;101904.91;;;17.20;45.30
48942;BME280;35340;52.378;4.648;2023-03-05T09:04:49;101908.38;;;17.21;45.47
48942;BME280;35340;52.378;4.648;2023-03-05T09:07:15;101902.22;;;17.16;45.39
48942;BME280;35340;52.378;4.648;2023-03-05T09:09:40;101903.97;;;17.14;45.40
48942;BME280;35340;52.378;4.648;2023-03-05T09:12:06;101905.69;;;17.13;45.55
48942;BME280;35340;52.378;4.648;2023-03-05T09:14:31;101904.84;;;17.14;45.38
48942;BME280;35340;52.378;4.648;2023-03-05T09:17:01;101898.81;;;17.20;45.68
48942;BME280;35340;52.378;4.648;2023-03-05T09:19:26;101901.63;;;17.46;45.56
48942;BME280;35340;52.378;4.648;2023-03-05T09:21:52;101887.91;;;17.70;45.70
48942;BME280;35340;52.378;4.648;2023-03-05T09:24:17;101884.59;;;17.85;45.82
48942;BME280;35340;52.378;4.648;2023-03-05T09:26:44;101889.78;;;17.85;45.67
48942;BME280;35340;52.378;4.648;2023-03-05T09:29:10;101888.94;;;17.84;45.59
48942;BME280;35340;52.378;4.648;2023-03-05T09:31:36;101886.25;;;17.80;45.66
48942;BME280;35340;52.378;4.648;2023-03-05T09:34:03;101881.03;;;17.78;45.59
48942;BME280;35340;52.378;4.648;2023-03-05T09:36:30;101883.69;;;17.81;45.47
48942;BME280;35340;52.378;4.648;2023-03-05T09:38:55;101884.47;;;17.74;45.46
48942;BME280;35340;52.378;4.648;2023-03-05T09:44:46;101882.63;;;17.59;45.78
48942;BME280;35340;52.378;4.648;2023-03-05T09:50:18;101874.00;;;17.60;45.72
48942;BME280;35340;52.378;4.648;2023-03-05T09:52:53;101882.69;;;17.64;45.53
48942;BME280;35340;52.378;4.648;2023-03-05T09:55:28;101880.97;;;17.64;45.58
48942;BME280;35340;52.378;4.648;2023-03-05T10:00:57;101875.75;;;17.67;45.56
48942;BME280;35340;52.378;4.648;2023-03-05T10:03:56;101870.63;;;17.75;45.17
48942;BME280;35340;52.378;4.648;2023-03-05T10:06:30;101866.38;;;17.86;44.96
48942;BME280;35340;52.378;4.648;2023-03-05T10:11:35;101863.84;;;18.00;44.54
48942;BME280;35340;52.378;4.648;2023-03-05T10:14:03;101863.88;;;18.06;44.35
48942;BME280;35340;52.378;4.648;2023-03-05T10:22:22;101858.66;;;18.06;44.20
48942;BME280;35340;52.378;4.648;2023-03-05T10:24:55;101855.19;;;18.09;44.12
48942;BME280;35340;52.378;4.648;2023-03-05T10:40:56;101838.69;;;18.04;45.23
48942;BME280;35340;52.378;4.648;2023-03-05T10:43:26;101832.38;;;17.65;49.40
48942;BME280;35340;52.378;4.648;2023-03-05T10:45:56;101830.28;;;17.18;52.91
48942;BME280;35340;52.378;4.648;2023-03-05T10:51:10;101831.72;;;16.80;53.64
48942;BME280;35340;52.378;4.648;2023-03-05T10:56:22;101818.59;;;16.71;57.11
48942;BME280;35340;52.378;4.648;2023-03-05T10:58:48;101813.38;;;16.68;56.04
48942;BME280;35340;52.378;4.648;2023-03-05T11:06:48;101813.28;;;16.60;55.46
48942;BME280;35340;52.378;4.648;2023-03-05T11:09:26;101807.25;;;16.63;55.28
48942;BME280;35340;52.378;4.648;2023-03-05T11:12:24;101803.81;;;16.64;58.52
48942;BME280;35340;52.378;4.648;2023-03-05T11:17:37;101802.94;;;16.65;58.21
48942;BME280;35340;52.378;4.648;2023-03-05T11:23:12;101789.13;;;16.71;53.68
48942;BME280;35340;52.378;4.648;2023-03-05T11:26:22;101786.50;;;16.66;53.55
48942;BME280;35340;52.378;4.648;2023-03-05T11:31:21;101770.09;;;16.70;54.65
48942;BME280;35340;52.378;4.648;2023-03-05T11:34:04;101775.25;;;16.69;53.45
48942;BME280;35340;52.378;4.648;2023-03-05T11:36:37;101775.28;;;16.72;53.18
48942;BME280;35340;52.378;4.648;2023-03-05T11:41:49;101764.91;;;16.73;55.06
48942;BME280;35340;52.378;4.648;2023-03-05T11:44:49;101761.44;;;16.73;53.70
48942;BME280;35340;52.378;4.648;2023-03-05T11:50:24;101760.59;;;16.75;54.11
48942;BME280;35340;52.378;4.648;2023-03-05T11:53:04;101750.19;;;16.78;54.24
48942;BME280;35340;52.378;4.648;2023-03-05T11:55:44;101745.06;;;16.80;54.47
48942;BME280;35340;52.378;4.648;2023-03-05T11:58:52;101738.97;;;16.81;52.62
48942;BME280;35340;52.378;4.648;2023-03-05T12:01:23;101737.25;;;16.80;53.19
48942;BME280;35340;52.378;4.648;2023-03-05T12:03:50;101734.66;;;16.80;53.45
48942;BME280;35340;52.378;4.648;2023-03-05T12:06:34;101720.78;;;16.81;53.49
48942;BME280;35340;52.378;4.648;2023-03-05T12:18:10;101707.06;;;16.97;52.45
48942;BME280;35340;52.378;4.648;2023-03-05T12:20:57;101701.88;;;17.00;52.72
48942;BME280;35340;52.378;4.648;2023-03-05T12:23:25;101702.75;;;17.04;52.93
48942;BME280;35340;52.378;4.648;2023-03-05T12:25:56;101696.69;;;17.03;52.97
48942;BME280;35340;52.378;4.648;2023-03-05T12:31:04;101697.63;;;17.13;50.91
48942;BME280;35340;52.378;4.648;2023-03-05T12:33:31;101700.19;;;17.07;55.00
48942;BME280;35340;52.378;4.648;2023-03-05T12:38:44;101679.44;;;17.18;54.35
48942;BME280;35340;52.378;4.648;2023-03-05T12:44:16;101674.16;;;17.04;58.19
48942;BME280;35340;52.378;4.648;2023-03-05T12:46:44;101665.47;;;16.99;55.25
48942;BME280;35340;52.378;4.648;2023-03-05T12:51:42;101658.50;;;16.95;56.76
48942;BME280;35340;52.378;4.648;2023-03-05T12:56:49;101647.25;;;16.97;56.17
48942;BME280;35340;52.378;4.648;2023-03-05T12:59:24;101654.19;;;16.98;57.07
48942;BME280;35340;52.378;4.648;2023-03-05T13:05:34;101635.13;;;16.99;55.59
48942;BME280;35340;52.378;4.648;2023-03-05T13:08:29;101636.00;;;17.01;56.09
48942;BME280;35340;52.378;4.648;2023-03-05T13:11:17;101623.84;;;17.00;56.54
48942;BME280;35340;52.378;4.648;2023-03-05T13:17:28;101617.78;;;16.98;57.36
48942;BME280;35340;52.378;4.648;2023-03-05T13:19:55;101618.66;;;16.99;57.59
48942;BME280;35340;52.378;4.648;2023-03-05T13:22:21;101608.28;;;16.99;57.54
48942;BME280;35340;52.378;4.648;2023-03-05T13:28:30;101603.06;;;16.99;58.34
48942;BME280;35340;52.378;4.648;2023-03-05T15:35:05;101463.50;;;16.92;56.61
48942;BME280;35340;52.378;4.648;2023-03-05T15:37:56;101464.38;;;16.98;58.00
48942;BME280;35340;52.378;4.648;2023-03-05T15:40:27;101475.72;;;17.14;59.60
48942;BME280;35340;52.378;4.648;2023-03-05T15:43:13;101468.75;;;17.05;58.24
48942;BME280;35340;52.378;4.648;2023-03-05T15:49:10;101458.22;;;16.73;63.76
48942;BME280;35340;52.378;4.648;2023-03-05T15:52:18;101446.94;;;16.68;62.81
48942;BME280;35340;52.378;4.648;2023-03-05T15:55:05;101442.59;;;16.64;63.02
48942;BME280;35340;52.378;4.648;2023-03-05T15:57:58;101444.28;;;16.63;62.88
48942;BME280;35340;52.378;4.648;2023-03-05T16:04:07;101430.44;;;16.60;63.24
48942;BME280;35340;52.378;4.648;2023-03-05T16:10:27;101420.91;;;16.60;62.71
48942;BME280;35340;52.378;4.648;2023-03-05T16:16:42;101411.38;;;16.61;63.40
48942;BME280;35340;52.378;4.648;2023-03-05T16:35:39;101387.13;;;16.60;62.50
48942;BME280;35340;52.378;4.648;2023-03-05T16:38:44;101394.94;;;16.57;63.01
48942;BME280;35340;52.378;4.648;2023-03-05T16:41:30;101388.84;;;16.58;64.13
48942;BME280;35340;52.378;4.648;2023-03-05T16:48:19;101383.66;;;16.58;63.04
48942;BME280;35340;52.378;4.648;2023-03-05T16:51:36;101369.81;;;16.58;63.56
48942;BME280;35340;52.378;4.648;2023-03-05T16:54:22;101370.66;;;16.57;64.15
48942;BME280;35340;52.378;4.648;2023-03-05T16:57:45;101356.78;;;16.56;63.75
48942;BME280;35340;52.378;4.648;2023-03-05T17:17:18;101349.84;;;16.57;64.07
48942;BME280;35340;52.378;4.648;2023-03-05T18:30:13;101314.38;;;16.70;64.83
48942;BME280;35340;52.378;4.648;2023-03-05T18:33:23;101305.72;;;16.78;65.25
48942;BME280;35340;52.378;4.648;2023-03-05T18:35:51;101302.31;;;16.89;66.99
48942;BME280;35340;52.378;4.648;2023-03-05T18:44:51;101294.41;;;16.42;68.70
48942;BME280;35340;52.378;4.648;2023-03-05T18:50:30;101284.03;;;16.38;67.83
48942;BME280;35340;52.378;4.648;2023-03-05T18:53:03;101284.00;;;16.36;67.17